Date,TemperatureHighF,TemperatureAvgF,TemperatureLowF,DewpointHighF,DewpointAvgF,DewpointLowF,HumidityHigh,HumidityAvg,HumidityLow,PressureMaxIn,PressureMinIn,WindSpeedMaxMPH,WindSpeedAvgMPH,GustSpeedMaxMPH,PrecipitationSumIn
2013-1-1,28.8,26.4,19.9,26.1,24.0,16.4,94,90,85,30.10,29.99,7,4,19,0.00
2013-1-2,20.3,16.8,12.7,16.4,11.7,8.8,87,80,68,30.32,30.09,6,3,16,0.00
2013-1-3,29.1,17.9,4.5,19.4,12.5,2.2,92,80,66,30.34,30.23,6,2,22,0.00
2013-1-4,27.4,23.9,21.6,20.7,18.9,17.5,86,81,72,30.28,30.19,9,4,26,0.00
2013-1-5,32.2,25.6,21.1,22.8,19.5,16.8,87,78,66,30.47,30.24,9,2,25,0.00
2013-1-6,35.2,31.6,28.7,28.1,25.7,21.2,88,79,70,30.24,30.07,5,2,16,0.02
2013-1-7,31.8,25.3,11.6,27.6,21.9,9.7,96,87,72,30.49,30.22,6,2,20,0.00
2013-1-8,41.6,26.3,11.2,27.2,20.2,8.8,96,79,54,30.49,30.38,2,1,12,0.06
2013-1-9,44.5,33.8,19.3,39.7,29.1,17.6,94,83,69,30.50,30.29,9,2,23,0.03
2013-1-10,40.0,34.5,27.0,27.9,26.1,24.1,90,72,56,30.64,30.46,8,2,24,0.00
2013-1-11,40.9,36.8,34.3,40.4,32.0,25.3,98,83,64,30.46,30.10,7,3,20,0.22
2013-1-12,58.9,49.1,39.7,52.6,47.5,39.2,99,94,78,30.17,30.06,2,1,8,0.01
2013-1-13,62.7,57.1,49.0,53.2,51.0,47.9,97,81,68,30.06,29.90,5,2,16,0.01
2013-1-14,54.1,38.1,28.8,52.7,34.1,24.7,97,86,73,30.35,29.92,7,3,22,0.12
2013-1-15,32.3,28.7,26.4,26.9,24.5,22.2,93,84,75,30.41,30.17,3,1,8,0.00
2013-1-16,32.6,30.1,27.5,31.6,28.0,23.6,97,92,76,30.17,29.94,4,1,11,0.00
2013-1-17,30.3,28.3,26.8,25.8,24.4,23.4,92,85,76,30.22,30.05,5,2,17,0.00
2013-1-18,29.9,21.5,14.0,23.9,12.5,4.2,90,69,33,30.53,30.16,11,5,26,0.00
2013-1-19,47.5,39.4,29.9,20.3,14.6,4.2,44,36,31,30.40,29.91,8,4,25,0.09
2013-1-20,41.6,32.7,17.6,28.8,19.7,11.0,75,59,42,30.12,29.79,14,6,40,0.00
2013-1-21,25.4,17.7,7.9,17.8,13.1,-0.2,89,82,65,30.12,29.94,6,2,17,0.00
2013-1-22,7.9,4.2,1.5,1.4,-2.5,-5.4,82,73,64,30.36,30.06,7,4,22,0.00
2013-1-23,9.9,5.3,-0.1,3.7,-1.0,-5.1,89,75,62,30.42,30.20,5,2,21,0.00
2013-1-24,14.8,8.8,-0.6,5.9,1.4,-5.6,89,73,45,30.63,30.18,9,3,21,0.00
2013-1-25,15.9,8.4,1.5,13.5,4.3,-3.7,91,83,73,30.61,30.16,4,1,13,0.00
2013-1-26,21.4,17.8,14.9,18.2,14.7,12.1,91,87,83,30.52,30.18,7,4,20,0.00
2013-1-27,30.4,21.7,14.7,19.0,14.4,12.0,91,75,53,30.65,30.47,3,1,8,0.02
2013-1-28,47.1,37.5,25.6,46.6,35.3,18.1,98,92,70,30.47,30.09,5,2,19,0.27
2013-1-29,59.8,52.1,46.9,52.4,49.0,46.4,99,90,76,30.12,29.90,5,2,14,0.06
2013-1-30,62.3,54.3,49.3,54.3,50.3,46.8,97,87,73,29.90,29.24,11,4,26,1.00
2013-1-31,47.8,25.1,18.2,45.9,19.4,10.1,94,79,66,29.87,29.21,8,4,30,0.11
2013-2-1,18.8,11.6,6.8,15.7,6.7,1.3,91,81,69,30.41,29.85,8,4,23,0.00
2013-2-2,21.8,13.4,2.1,18.1,9.5,-0.9,91,84,71,30.41,30.08,7,1,15,0.00
2013-2-3,24.8,19.4,13.0,19.1,16.3,10.1,93,88,74,30.08,29.86,6,2,17,0.00
2013-2-4,26.7,18.4,12.0,24.7,13.7,6.2,94,82,68,30.14,29.95,8,3,19,0.00
2013-2-5,30.9,27.2,24.6,29.3,25.6,22.9,96,93,86,30.00,29.89,5,1,15,0.00
2013-2-6,25.8,22.4,9.0,23.2,19.0,7.1,94,87,75,30.42,29.98,8,3,20,0.00
2013-2-7,32.8,24.0,9.8,24.6,19.1,7.6,95,82,70,30.45,30.19,7,3,21,0.00
2013-2-8,34.2,27.2,19.8,32.7,25.1,17.4,96,92,85,30.18,29.87,12,5,33,0.01
2013-2-9,25.3,17.7,7.9,17.5,13.5,5.8,92,84,67,30.50,30.11,10,4,25,0.00
2013-2-10,37.2,23.1,2.9,20.7,12.9,0.2,93,68,44,30.50,30.19,6,3,18,0.02
2013-2-11,56.6,41.8,31.2,46.2,32.2,19.9,97,72,37,30.19,29.72,9,5,33,0.11
2013-2-12,36.9,30.9,23.3,25.6,23.9,21.3,92,75,62,30.04,29.91,9,4,24,0.00
2013-2-13,38.6,28.7,19.6,28.8,24.4,18.2,96,85,57,30.01,29.75,4,1,11,0.00
2013-2-14,38.6,31.4,22.6,30.8,25.4,19.8,94,79,67,30.03,29.88,4,2,14,0.24
2013-2-15,38.4,32.5,25.6,31.6,27.3,24.1,94,82,61,30.08,29.98,4,2,12,0.02
2013-2-16,25.6,21.4,15.2,24.1,16.9,12.3,94,83,64,30.06,29.96,5,3,15,0.00
2013-2-17,17.2,13.3,9.0,12.5,8.7,2.5,92,82,66,30.31,29.95,9,5,27,0.00
2013-2-18,38.1,23.4,0.8,19.2,9.7,-2.2,87,58,36,30.44,30.11,9,2,24,0.01
2013-2-19,41.2,32.2,19.3,36.4,26.0,14.8,93,79,50,30.11,29.69,9,4,27,0.11
2013-2-20,19.6,15.3,13.1,16.3,10.6,7.6,90,81,68,30.26,29.90,9,6,26,0.00
2013-2-21,19.5,14.4,6.9,14.6,10.2,4.6,91,83,76,30.46,30.23,10,5,24,0.00
2013-2-22,24.7,21.2,10.3,23.2,17.6,8.0,94,86,75,30.42,30.19,8,4,23,0.00
2013-2-23,45.2,33.2,24.7,37.9,30.6,23.2,95,90,75,30.19,29.89,5,1,16,0.02
2013-2-24,32.9,26.1,22.8,31.4,22.5,18.2,97,86,76,30.18,29.89,8,4,24,0.00
2013-2-25,38.1,29.0,21.5,23.4,20.3,19.0,91,71,48,30.30,30.18,4,1,13,0.00
2013-2-26,31.9,30.2,28.8,30.6,25.0,20.1,95,81,67,30.20,29.71,10,5,29,0.00
2013-2-27,37.3,33.0,30.6,34.2,31.0,29.4,97,93,79,29.74,29.66,5,1,15,0.18
2013-2-28,31.1,29.2,28.1,29.8,26.8,25.1,96,91,84,29.82,29.68,8,2,17,0.00
2013-3-1,28.4,25.5,21.3,27.2,23.8,19.3,96,93,87,30.00,29.82,7,4,19,0.00
2013-3-2,22.5,20.4,18.7,19.3,17.9,16.7,93,90,84,29.99,29.94,7,4,16,0.00
2013-3-3,23.0,20.2,17.5,18.2,17.0,14.6,93,87,77,30.04,29.95,8,5,19,0.00
2013-3-4,28.2,20.6,15.9,17.6,15.0,12.4,91,79,63,30.16,30.03,8,4,22,0.00
2013-3-5,41.5,26.5,5.9,23.6,14.3,3.7,92,64,29,30.17,29.81,7,2,21,0.12
2013-3-6,34.6,30.1,26.5,29.9,26.6,24.3,96,87,74,30.15,29.77,8,3,27,0.08
2013-3-7,34.2,30.6,28.0,28.6,26.1,24.4,94,83,72,30.29,30.14,7,4,16,0.00
2013-3-8,35.1,28.7,21.4,26.2,23.9,19.9,94,82,68,30.45,30.27,9,5,22,0.00
2013-3-9,51.3,32.2,12.2,29.1,20.0,10.3,95,66,28,30.49,30.33,3,1,11,0.09
2013-3-10,56.6,47.3,39.9,28.0,23.0,17.5,46,38,32,30.32,30.12,9,4,24,0.00
2013-3-11,49.1,46.4,43.4,45.0,30.5,23.6,93,55,43,30.13,29.81,11,5,27,0.01
2013-3-12,47.3,36.7,31.1,45.4,33.9,25.7,96,89,80,30.02,29.78,8,2,22,0.44
2013-3-13,32.5,27.6,21.6,27.3,23.1,16.7,92,83,63,30.12,29.97,8,3,27,0.03
2013-3-14,30.1,23.8,19.2,18.4,16.4,14.6,91,74,55,30.23,30.12,10,6,27,0.00
2013-3-15,42.6,33.6,23.3,33.1,24.6,15.4,92,69,58,30.19,29.88,6,3,16,0.00
2013-3-16,35.0,32.9,30.6,34.2,31.9,29.9,98,96,93,29.98,29.70,6,2,13,0.13
2013-3-17,30.8,27.7,23.2,29.5,22.6,19.1,97,81,68,30.29,29.98,7,3,16,0.00
2013-3-18,27.6,25.7,23.7,26.9,22.7,19.6,97,88,74,30.28,29.90,11,7,30,0.00
2013-3-19,40.5,32.4,26.2,32.5,24.4,15.7,98,75,41,30.00,29.81,9,4,26,0.03
2013-3-20,34.7,27.1,21.5,23.4,18.0,14.5,93,70,50,30.00,29.87,6,3,20,0.00
2013-3-21,21.3,18.5,13.7,18.0,11.8,7.0,91,76,58,29.95,29.86,7,3,20,0.00
2013-3-22,27.0,22.2,15.9,19.3,16.8,13.2,90,80,67,30.10,29.94,5,3,19,0.00
2013-3-23,38.0,27.7,16.8,23.1,19.7,14.1,91,73,50,30.11,30.05,7,2,19,0.00
2013-3-24,33.4,26.9,17.7,25.1,20.5,15.8,92,78,62,30.08,29.64,5,2,18,0.00
2013-3-25,34.0,29.2,26.1,29.4,26.7,24.2,97,90,77,29.77,29.56,5,2,15,0.08
2013-3-26,36.7,30.3,25.9,29.2,27.3,24.2,97,89,68,30.10,29.77,7,3,18,0.00
2013-3-27,35.4,30.5,27.7,28.0,26.8,24.3,96,87,66,30.20,30.09,8,4,19,0.07
2013-3-28,32.9,30.6,28.6,30.4,28.4,26.8,96,92,84,30.32,30.15,6,4,15,0.00
2013-3-29,42.8,35.7,28.4,30.8,27.1,23.8,95,73,49,30.32,30.22,6,2,16,0.16
2013-3-30,47.5,35.2,19.6,28.7,21.6,17.9,95,62,34,30.31,30.15,3,1,11,0.00
2013-3-31,42.7,40.1,31.5,40.6,31.8,18.5,96,75,43,30.15,29.77,6,2,19,0.33
2013-4-1,41.9,36.1,27.5,38.8,28.0,12.5,92,74,45,30.02,29.75,8,4,25,0.00
2013-4-2,33.6,27.1,21.8,18.0,14.1,11.7,85,58,43,30.24,30.02,8,4,20,0.00
2013-4-3,33.0,26.4,19.1,20.3,12.8,7.8,79,58,39,30.47,30.23,10,4,27,0.00
2013-4-4,43.5,29.7,11.4,18.0,10.3,-2.3,90,50,21,30.47,30.09,6,2,18,0.00
2013-4-5,49.1,38.3,26.0,28.6,22.0,16.8,81,53,33,30.16,29.97,12,4,22,0.00
2013-4-6,50.5,36.7,21.5,22.1,16.7,11.6,89,49,21,30.34,30.17,6,3,17,0.00
2013-4-7,66.7,52.9,41.2,46.6,33.9,18.5,77,49,38,30.20,29.94,6,3,23,0.01
2013-4-8,70.5,57.7,38.9,50.6,44.2,37.3,97,65,37,30.08,29.94,7,2,19,0.02
2013-4-9,75.8,65.2,57.8,54.2,51.0,45.5,78,61,44,30.09,29.91,6,2,20,0.00
2013-4-10,78.4,68.2,55.5,58.5,54.9,50.3,95,64,47,29.95,29.79,10,2,32,0.23
2013-4-11,74.1,60.7,48.0,57.3,53.3,47.2,99,79,50,29.88,29.67,8,2,21,0.01
2013-4-12,63.4,52.2,49.2,59.5,50.4,48.1,97,94,81,29.68,29.57,9,5,25,0.65
2013-4-13,51.6,41.7,34.8,33.9,31.5,28.1,82,68,47,30.01,29.82,5,3,21,0.00
2013-4-14,58.9,46.2,30.1,37.3,30.3,23.4,81,56,37,30.20,30.01,7,2,17,0.00
2013-4-15,57.8,54.0,49.2,48.0,43.0,34.4,84,67,49,30.19,30.09,11,6,26,0.00
2013-4-16,77.4,61.6,51.6,56.4,52.5,48.2,97,75,45,30.20,30.06,7,4,29,0.63
2013-4-17,61.6,55.6,51.9,54.9,53.3,51.2,99,92,77,30.23,30.13,5,1,13,0.01
2013-4-18,71.4,61.2,55.5,60.7,55.1,49.7,93,81,66,30.19,29.86,11,6,36,0.00
2013-4-19,69.6,57.1,40.1,58.8,50.7,33.1,94,80,65,29.86,29.51,10,6,30,0.37
2013-4-20,42.8,36.5,30.8,32.0,26.2,21.6,89,67,45,30.42,29.82,9,4,26,0.00
2013-4-21,48.3,35.3,21.6,24.1,19.9,16.3,92,57,29,30.65,30.43,4,2,13,0.00
2013-4-22,51.2,42.1,34.3,30.7,24.7,20.2,74,51,32,30.58,30.39,8,4,24,0.00
2013-4-23,61.8,46.7,31.9,39.0,34.0,28.2,86,64,37,30.39,30.10,5,3,18,0.00
2013-4-24,70.1,53.2,36.7,55.6,44.5,33.8,94,74,51,30.09,29.75,9,4,25,0.22
2013-4-25,55.0,42.5,31.6,34.4,28.9,22.9,93,63,29,30.38,30.11,7,3,19,0.00
2013-4-26,55.9,43.7,29.0,35.3,28.7,23.7,94,60,29,30.51,30.39,5,2,14,0.00
2013-4-27,65.4,49.4,28.0,38.6,33.0,25.4,91,58,33,30.46,30.26,6,2,17,0.00
2013-4-28,53.3,48.4,45.1,46.6,41.9,37.4,95,79,56,30.26,30.07,7,4,23,0.08
2013-4-29,53.4,49.5,45.8,50.4,47.2,43.3,97,92,86,30.11,30.04,6,3,16,0.01
2013-4-30,58.7,52.7,49.3,51.5,49.4,47.3,95,89,75,30.28,30.10,6,4,16,0.01
2013-5-1,66.6,56.1,45.0,48.5,37.6,26.7,92,55,24,30.39,30.28,6,3,16,0.00
2013-5-2,67.7,55.9,42.1,40.7,35.9,26.2,87,51,22,30.41,30.28,7,3,20,0.00
2013-5-3,63.2,54.4,44.5,43.3,39.5,32.4,80,58,37,30.34,30.25,9,4,25,0.00
2013-5-4,62.5,51.5,41.7,43.5,39.8,36.5,83,66,46,30.28,30.17,8,4,23,0.00
2013-5-5,64.2,52.8,41.9,39.6,34.3,25.8,82,53,24,30.20,30.10,8,4,24,0.00
2013-5-6,59.3,51.0,42.1,51.5,45.2,37.2,95,81,66,30.15,30.08,7,4,21,0.13
2013-5-7,60.2,54.8,52.4,54.6,52.4,50.4,96,92,78,30.08,29.97,5,3,21,0.69
2013-5-8,65.8,55.3,49.6,53.8,50.0,45.4,97,84,48,30.02,29.91,6,1,17,0.68
2013-5-9,67.0,54.6,46.1,58.5,51.5,45.6,99,90,67,30.04,29.92,4,0,11,0.07
2013-5-10,73.5,57.8,46.6,60.7,53.8,46.1,99,87,57,30.05,29.85,5,1,23,0.49
2013-5-11,58.1,54.8,48.9,57.0,53.2,45.8,98,94,89,29.85,29.77,5,2,14,0.35
2013-5-12,48.9,43.4,36.7,45.7,32.4,24.8,92,67,43,30.05,29.80,9,4,24,0.00
2013-5-13,45.3,38.1,27.6,30.3,26.1,22.7,89,64,43,30.22,30.04,8,3,21,0.00
2013-5-14,53.3,40.6,22.9,37.8,28.7,21.4,95,66,39,30.27,30.05,5,1,14,0.00
2013-5-15,81.7,63.6,45.9,61.2,50.0,34.9,92,62,46,30.05,29.74,7,3,21,0.03
2013-5-16,73.3,65.7,55.0,60.3,55.7,47.7,96,72,41,29.96,29.76,5,2,17,0.18
2013-5-17,75.7,61.8,47.7,58.2,51.7,47.2,99,74,38,30.12,29.96,5,1,13,0.00
2013-5-18,68.8,60.5,53.5,59.0,51.5,41.5,96,73,59,30.16,30.10,5,2,15,0.00
2013-5-19,61.0,56.8,53.1,59.2,55.6,52.7,99,96,89,30.17,30.08,5,2,16,0.00
2013-5-20,78.6,68.0,59.4,66.1,61.8,58.3,97,82,60,30.10,29.95,3,1,10,0.00
2013-5-21,83.3,70.0,55.6,68.1,61.8,55.0,99,78,49,29.98,29.83,3,1,13,0.00
2013-5-22,83.2,68.4,59.6,64.6,60.1,56.7,95,77,46,29.89,29.77,11,2,29,0.48
2013-5-23,75.7,62.8,57.3,61.9,58.0,55.6,97,86,55,29.84,29.74,8,1,20,0.18
2013-5-24,56.4,41.2,36.8,55.0,37.6,28.9,97,87,72,30.27,29.79,9,6,24,0.05
2013-5-25,55.3,43.6,34.0,36.2,33.0,30.3,92,69,44,30.31,30.23,12,6,25,0.00
2013-5-26,60.1,46.7,28.4,37.6,33.9,27.2,97,64,39,30.30,30.24,9,3,23,0.00
2013-5-27,62.1,48.4,30.4,49.9,39.3,29.4,96,75,36,30.33,30.21,3,1,9,0.02
2013-5-28,71.1,59.0,49.4,65.2,55.4,45.2,97,88,74,30.21,30.05,3,1,12,0.49
2013-5-29,79.9,68.4,56.3,63.6,58.8,55.2,96,74,47,30.12,30.06,7,2,18,0.00
2013-5-30,84.3,69.3,53.0,65.7,58.8,52.3,98,73,35,30.20,30.10,4,1,15,0.00
2013-5-31,85.2,70.9,55.6,65.1,60.2,55.0,98,73,38,30.14,29.98,3,1,11,0.00
2013-6-1,83.8,70.6,57.4,65.6,61.8,56.6,97,76,46,30.02,29.85,5,2,19,0.00
2013-6-2,75.8,69.8,64.0,64.2,61.3,58.7,91,75,59,29.85,29.79,5,2,17,0.00
2013-6-3,63.7,59.6,48.0,59.4,55.3,46.1,98,86,75,30.02,29.84,6,2,17,0.00
2013-6-4,66.6,52.1,33.3,47.6,43.0,32.5,98,74,47,30.18,30.03,6,1,15,0.00
2013-6-5,72.0,58.4,40.4,57.9,49.7,39.4,97,75,56,30.20,30.01,6,2,19,0.00
2013-6-6,63.1,58.3,55.7,58.5,55.8,54.1,98,92,79,30.01,29.82,7,4,20,0.51
2013-6-7,66.5,61.8,58.3,62.8,60.4,58.0,99,95,88,29.83,29.71,6,2,14,0.27
2013-6-8,64.5,56.6,49.6,57.5,53.6,49.1,99,90,71,30.15,29.79,5,2,13,0.01
2013-6-9,75.0,63.0,46.7,63.4,57.5,46.2,99,84,64,30.22,30.08,5,2,16,0.00
2013-6-10,73.3,65.2,57.3,67.1,62.6,56.5,98,92,79,30.08,29.77,6,2,18,0.28
2013-6-11,70.6,63.0,58.5,63.8,60.4,57.7,97,91,75,29.89,29.78,8,2,16,0.14
2013-6-12,77.6,67.3,58.2,66.7,62.8,57.6,99,87,60,29.91,29.77,6,1,13,0.00
2013-6-13,69.6,63.5,56.1,67.1,60.5,52.0,99,90,80,29.78,29.51,8,4,22,0.79
2013-6-14,67.4,59.4,52.7,56.2,52.8,50.0,93,80,62,30.04,29.71,9,4,24,0.00
2013-6-15,71.8,59.5,44.7,55.7,48.8,44.2,99,72,40,30.14,30.03,5,2,15,0.00
2013-6-16,71.8,62.9,54.8,64.9,58.9,52.1,96,87,71,30.06,29.91,5,2,17,0.09
2013-6-17,76.7,68.4,59.9,64.3,60.9,56.3,97,79,50,29.97,29.90,5,1,13,0.01
2013-6-18,73.4,64.7,56.5,65.6,60.9,55.9,98,88,73,29.93,29.82,5,1,11,0.02
2013-6-19,74.0,62.5,51.1,58.2,52.8,48.2,97,73,41,30.15,29.93,2,1,11,0.01
2013-6-20,77.2,63.2,46.3,63.4,56.3,45.5,97,80,55,30.23,30.15,3,1,9,0.00
2013-6-21,82.6,67.7,52.8,65.0,58.6,52.3,98,76,42,30.26,30.18,3,1,11,0.00
2013-6-22,83.8,72.1,57.9,67.4,62.2,56.0,96,73,48,30.21,30.08,4,1,11,0.00
2013-6-23,87.7,72.3,58.0,68.8,63.9,57.2,98,77,42,30.16,30.04,4,1,12,0.00
2013-6-24,83.7,71.6,58.0,68.0,63.3,57.4,99,78,51,30.13,30.00,5,1,13,0.00
2013-6-25,84.8,70.8,59.9,67.3,63.1,59.0,98,79,52,30.04,29.88,14,2,31,0.33
2013-6-26,76.3,67.6,59.9,68.9,64.4,59.3,99,90,72,29.98,29.83,4,1,14,0.92
2013-6-27,71.8,65.6,59.0,68.3,64.0,58.7,100,95,87,29.84,29.61,4,1,12,0.44
2013-6-28,75.1,64.5,55.1,67.0,61.7,54.5,99,91,75,29.62,29.51,4,1,21,0.26
2013-6-29,74.5,64.1,54.5,65.7,60.2,53.9,99,88,65,29.71,29.54,4,1,11,0.37
2013-6-30,80.6,67.0,54.5,70.3,61.9,54.2,99,85,58,29.85,29.71,5,1,14,0.30
2013-7-1,75.6,68.7,64.7,67.7,65.1,63.0,98,89,73,29.94,29.82,4,1,11,0.00
2013-7-2,77.8,70.9,65.4,70.0,66.9,64.1,98,88,71,30.08,29.94,5,2,14,0.05
2013-7-3,83.1,71.3,64.1,71.0,66.4,62.6,97,85,62,30.18,30.08,4,1,11,0.07
2013-7-4,81.9,72.0,64.2,70.1,66.7,63.6,99,85,59,30.21,30.12,4,1,12,0.00
2013-7-5,83.0,72.8,63.1,69.5,66.6,62.2,98,83,62,30.17,30.08,5,1,12,0.82
2013-7-6,84.6,72.5,60.9,70.7,66.8,60.6,100,84,58,30.18,30.03,5,1,13,0.00
2013-7-7,79.8,69.2,64.2,68.1,65.6,62.7,99,89,67,30.09,30.00,2,1,22,0.25
2013-7-8,77.7,67.7,62.1,68.7,64.3,61.7,99,90,63,30.12,30.05,3,1,11,0.04
2013-7-9,77.1,69.5,64.0,71.4,67.1,63.4,99,93,79,30.10,29.99,6,1,13,0.10
2013-7-10,81.6,69.6,62.9,71.8,66.3,62.3,98,90,72,30.00,29.83,9,2,29,0.79
2013-7-11,74.9,65.1,57.0,64.7,61.0,56.2,99,88,61,29.99,29.85,6,1,12,0.00
2013-7-12,71.9,62.7,55.1,64.0,59.3,54.5,99,89,73,30.11,29.97,2,0,8,0.00
2013-7-13,77.4,67.1,59.1,67.3,63.6,58.8,99,89,70,30.27,30.10,4,1,11,0.12
2013-7-14,81.8,72.8,65.7,68.2,66.6,63.3,97,82,62,30.31,30.25,6,2,17,0.00
2013-7-15,85.5,73.1,60.0,71.5,65.9,59.4,99,80,54,30.34,30.23,4,1,12,0.00
2013-7-16,85.6,75.4,65.6,71.8,68.4,64.7,98,81,57,30.30,30.19,5,1,13,0.00
2013-7-17,86.8,74.5,64.4,73.2,68.9,64.1,99,84,57,30.27,30.13,4,1,11,0.00
2013-7-18,88.9,76.1,64.0,73.6,69.3,63.7,100,82,55,30.17,30.01,4,1,11,0.00
2013-7-19,86.5,75.2,65.6,74.3,69.8,65.0,100,85,61,30.03,29.87,5,2,14,0.00
2013-7-20,77.9,70.3,63.6,71.8,66.6,62.7,97,88,75,29.91,29.82,7,2,15,0.36
2013-7-21,82.1,70.1,62.5,68.6,65.4,61.9,98,86,59,29.97,29.89,2,0,8,0.00
2013-7-22,77.4,68.9,60.4,70.9,66.2,60.1,99,92,72,29.94,29.77,3,1,12,0.20
2013-7-23,76.7,67.9,61.4,67.0,64.0,59.4,99,88,68,29.76,29.68,4,2,13,0.03
2013-7-24,68.2,61.2,49.5,61.4,55.5,48.7,99,83,63,29.99,29.72,6,2,18,0.01
2013-7-25,73.0,57.6,42.7,55.2,49.7,42.2,99,78,46,30.12,29.99,6,1,15,0.00
2013-7-26,77.7,62.5,43.5,58.6,52.4,43.0,99,73,44,30.14,30.03,4,1,9,0.01
2013-7-27,70.2,63.0,53.4,65.5,60.4,52.6,98,91,81,30.04,29.87,6,1,15,0.31
2013-7-28,75.0,65.0,54.7,61.6,57.8,52.7,98,80,48,30.02,29.87,5,1,13,0.05
2013-7-29,70.3,58.3,44.6,56.4,51.6,44.1,99,80,54,30.21,30.03,4,1,16,0.00
2013-7-30,73.4,60.2,45.2,57.8,53.0,44.7,99,79,55,30.26,30.18,4,1,11,0.00
2013-7-31,74.7,62.3,48.7,62.5,57.1,48.2,99,84,56,30.20,29.99,3,0,9,0.00
2013-8-1,75.0,66.0,57.6,66.2,61.5,56.5,96,87,61,29.98,29.84,4,1,14,0.02
2013-8-2,74.8,63.8,50.0,61.0,55.8,49.5,99,78,50,29.99,29.90,4,1,16,0.00
2013-8-3,68.0,63.8,54.5,63.0,60.2,53.4,96,88,77,29.98,29.92,5,1,15,0.04
2013-8-4,68.6,57.2,45.2,56.3,51.5,44.9,99,83,56,30.10,29.98,8,2,18,0.01
2013-8-5,70.0,57.1,42.9,54.5,49.6,42.4,99,79,50,30.15,30.06,4,1,11,0.00
2013-8-6,75.2,62.9,48.8,62.0,55.9,47.7,98,80,58,30.07,30.02,3,1,11,0.00
2013-8-7,76.3,66.6,59.5,68.7,63.7,58.9,98,91,75,30.05,29.93,5,2,17,1.93
2013-8-8,79.3,68.3,58.5,70.7,66.1,58.2,100,93,74,30.00,29.93,4,1,13,0.42
2013-8-9,76.1,69.3,64.2,71.3,68.0,63.6,99,96,83,29.99,29.88,3,1,11,0.28
2013-8-10,76.3,66.0,58.8,63.7,61.1,58.4,100,86,60,30.10,29.99,5,1,12,0.01
2013-8-11,78.9,67.9,54.6,66.6,61.9,54.3,100,83,61,30.13,30.01,4,1,10,0.75
2013-8-12,78.2,68.4,62.3,65.5,63.4,61.4,100,85,60,30.05,29.90,3,1,10,0.06
2013-8-13,72.0,64.3,54.3,65.5,60.6,48.9,99,88,72,29.93,29.78,8,2,18,0.36
2013-8-14,61.7,53.2,44.9,52.6,48.6,44.1,97,85,70,30.15,29.93,8,2,20,0.00
2013-8-15,70.8,54.5,39.0,53.3,47.1,38.5,99,79,47,30.24,30.13,2,0,7,0.01
2013-8-16,73.6,58.0,42.7,57.3,50.9,42.2,99,80,52,30.21,30.16,3,1,10,0.00
2013-8-17,70.8,59.3,47.1,57.1,52.6,46.3,98,80,55,30.29,30.21,5,1,16,0.00
2013-8-18,66.8,60.0,55.1,59.6,56.0,52.3,96,87,77,30.26,30.17,3,1,11,0.04
2013-8-19,72.0,62.7,56.6,66.2,60.5,55.8,99,93,79,30.18,30.08,4,1,11,0.45
2013-8-20,78.4,63.4,50.9,63.2,57.1,50.6,100,83,52,30.22,30.12,4,1,11,0.01
2013-8-21,80.6,65.0,51.3,68.9,60.5,50.8,99,87,58,30.22,30.09,3,0,9,0.00
2013-8-22,78.7,66.5,59.7,69.4,63.5,59.3,99,91,64,30.11,29.98,4,1,12,0.10
2013-8-23,75.5,66.1,56.6,64.7,62.4,56.0,100,89,56,30.13,29.98,1,0,6,0.03
2013-8-24,76.2,62.1,49.6,59.5,53.9,49.1,99,77,41,30.34,30.14,3,1,8,0.01
2013-8-25,77.8,63.1,48.0,60.8,55.6,47.5,99,79,50,30.40,30.26,3,1,11,0.00
2013-8-26,79.6,65.8,50.0,64.6,58.9,49.5,99,81,57,30.28,30.03,4,1,14,0.00
2013-8-27,76.7,70.7,67.1,70.0,66.8,63.6,94,88,78,30.02,29.91,5,1,12,0.04
2013-8-28,73.6,67.4,64.9,70.3,66.4,64.6,99,97,86,29.94,29.81,2,0,11,1.93
2013-8-29,82.7,69.3,61.3,68.1,65.0,60.7,100,88,58,30.03,29.89,2,0,6,0.01
2013-8-30,81.9,68.6,55.8,68.3,62.9,55.5,100,84,54,30.03,29.85,2,1,9,0.01
2013-8-31,82.2,70.8,63.1,69.9,66.1,62.8,99,86,55,29.86,29.77,4,1,12,0.01
2013-9-1,75.7,67.3,62.1,71.8,65.3,61.8,100,94,76,29.86,29.78,6,0,17,1.57
2013-9-2,80.7,68.9,60.0,70.3,65.1,59.7,100,89,66,29.82,29.73,3,1,11,1.17
2013-9-3,67.0,61.8,56.4,65.0,57.4,53.2,100,87,65,30.02,29.78,6,2,20,0.01
2013-9-4,71.7,59.6,49.8,56.7,53.6,49.2,98,82,54,30.13,30.02,5,1,13,0.00
2013-9-5,67.5,59.0,46.0,58.7,52.8,44.1,98,81,55,30.20,30.06,8,2,19,0.00
2013-9-6,69.2,52.8,37.0,50.6,44.6,36.5,99,78,44,30.30,30.18,3,1,8,0.01
2013-9-7,74.0,56.7,40.5,55.5,47.7,40.0,99,77,37,30.18,29.99,3,1,11,0.00
2013-9-8,74.0,63.3,55.7,65.1,59.5,54.4,99,88,72,30.06,29.95,5,1,12,0.08
2013-9-9,69.3,59.8,48.5,60.3,54.1,46.4,96,82,69,30.16,30.07,5,1,13,0.00
2013-9-10,84.0,71.0,58.6,74.1,67.0,58.0,99,88,71,30.17,30.09,4,1,15,0.00
2013-9-11,84.8,71.5,64.1,74.1,68.2,63.8,100,90,66,30.15,30.01,4,1,10,0.05
2013-9-12,78.4,66.9,59.0,70.7,65.0,58.2,100,94,76,30.01,29.76,7,1,19,0.23
2013-9-13,59.0,53.0,45.0,58.1,51.4,43.7,99,94,80,30.01,29.76,6,2,17,0.16
2013-9-14,57.6,47.2,39.1,45.6,42.6,38.3,99,85,61,30.23,30.01,5,2,14,0.01
2013-9-15,68.0,51.5,35.5,55.7,46.4,35.2,99,85,55,30.26,30.12,4,1,13,0.00
2013-9-16,63.6,55.7,51.1,53.5,51.7,48.7,99,87,65,30.30,30.11,6,2,13,0.18
2013-9-17,62.6,49.3,37.7,48.8,41.1,37.2,98,76,45,30.43,30.30,4,1,11,0.00
2013-9-18,67.1,50.2,34.8,49.7,43.0,34.0,98,79,50,30.35,30.20,4,1,11,0.00
2013-9-19,67.6,56.5,45.1,61.3,54.1,44.0,98,92,77,30.21,30.09,2,0,6,0.00
2013-9-20,76.2,61.0,46.4,64.4,57.2,46.1,100,88,67,30.10,29.90,3,1,12,0.01
2013-9-21,66.3,60.3,53.2,62.9,58.7,52.9,99,95,87,29.90,29.66,7,2,26,0.86
2013-9-22,58.4,51.8,48.0,53.6,48.9,45.4,99,90,63,30.02,29.76,7,2,14,0.01
2013-9-23,53.9,46.1,34.8,45.2,40.6,34.0,97,82,67,30.16,30.02,4,2,15,0.00
2013-9-24,67.2,45.2,29.4,49.7,39.7,28.9,99,84,48,30.19,30.04,3,1,8,0.00
2013-9-25,66.0,50.5,35.6,53.3,44.3,35.1,99,82,51,30.06,29.95,3,0,9,0.01
2013-9-26,71.8,52.7,39.1,52.4,45.1,38.6,99,80,41,30.13,30.00,5,1,11,0.00
2013-9-27,68.9,53.2,39.7,54.7,47.7,39.2,99,84,51,30.26,30.13,3,0,11,0.01
2013-9-28,60.0,51.1,44.0,52.3,48.0,42.9,99,90,66,30.32,30.23,4,1,15,0.01
2013-9-29,66.4,52.8,38.4,53.6,47.0,37.9,99,83,59,30.24,30.08,3,1,10,0.01
2013-9-30,68.3,54.4,44.0,58.0,50.7,43.2,99,89,62,30.10,30.02,2,0,8,0.00
2013-10-1,71.5,58.3,47.9,60.0,54.4,47.6,100,88,64,30.11,30.03,4,1,12,0.00
2013-10-2,75.5,61.1,50.3,63.3,57.0,49.8,100,88,61,30.11,30.06,5,1,16,0.01
2013-10-3,75.1,62.7,51.1,65.1,58.6,50.8,100,88,65,30.14,30.05,3,0,9,0.01
2013-10-4,78.1,66.0,58.6,66.1,61.5,57.8,99,87,59,30.12,30.04,3,1,14,0.22
2013-10-5,78.4,66.1,56.9,67.0,62.4,56.6,100,89,65,30.11,30.00,2,0,7,0.01
2013-10-6,81.2,69.6,59.5,63.7,60.5,58.6,99,76,49,30.01,29.82,6,3,19,0.00
2013-10-7,67.0,55.0,42.1,61.1,49.8,40.2,96,83,65,30.10,29.69,6,3,21,0.53
2013-10-8,61.4,48.2,34.4,47.3,41.0,33.6,99,78,47,30.35,30.11,5,1,12,0.00
2013-10-9,59.9,46.6,34.8,43.5,38.8,34.0,98,77,49,30.39,30.31,5,1,15,0.01
2013-10-10,46.0,45.8,45.4,39.2,39.0,38.8,78,77,76,30.30,30.29,0,0,2,0.00
2013-10-11,56.8,52.2,47.1,55.7,51.5,46.3,99,98,95,30.13,30.07,3,1,10,0.76
2013-10-12,67.2,58.8,53.4,60.1,55.4,51.0,98,89,76,30.21,30.07,4,2,13,0.01
2013-10-13,56.8,54.1,51.7,54.8,52.4,50.7,98,94,83,30.32,30.19,3,1,10,0.06
2013-10-14,61.2,54.9,52.2,57.2,52.9,50.8,97,93,84,30.33,30.25,3,1,11,0.00
2013-10-15,64.9,56.9,49.8,55.7,52.6,49.5,99,86,71,30.26,30.06,4,1,12,0.00
2013-10-16,64.4,57.6,48.3,59.5,52.0,46.3,94,82,56,30.06,29.90,4,1,13,0.03
2013-10-17,60.6,54.8,45.7,58.0,53.0,44.1,97,93,88,29.91,29.66,7,2,22,0.34
2013-10-18,55.3,46.3,36.8,43.8,40.0,35.5,95,80,55,30.05,29.87,4,2,18,0.00
2013-10-19,53.2,41.4,29.8,45.6,37.9,29.2,99,88,59,30.03,29.83,9,2,24,0.08
2013-10-20,53.9,42.0,33.6,37.4,34.8,32.1,94,77,51,30.12,29.96,5,2,15,0.00
2013-10-21,62.9,46.0,29.9,39.1,34.7,28.9,97,69,36,30.15,29.94,6,1,13,0.00
2013-10-22,50.2,43.1,30.0,42.4,34.0,26.4,92,72,46,29.94,29.86,6,2,19,0.02
2013-10-23,37.3,34.6,31.3,35.5,32.6,29.1,95,93,85,29.97,29.77,5,1,13,0.10
2013-10-24,37.0,33.7,31.5,31.7,28.8,26.2,93,83,67,30.17,29.96,6,2,18,0.02
2013-10-25,40.8,32.6,29.1,31.8,28.8,26.5,94,86,69,30.37,30.18,5,2,14,0.00
2013-10-26,47.1,37.1,28.8,30.4,26.1,22.7,92,67,38,30.33,29.98,7,4,21,0.00
2013-10-27,45.4,37.9,27.4,34.1,29.6,25.6,93,73,52,30.18,30.00,7,2,20,0.00
2013-10-28,56.9,38.0,25.0,36.9,29.4,23.8,97,75,38,30.36,30.18,4,1,10,0.00
2013-10-29,56.0,40.9,27.2,37.9,32.5,26.0,96,75,43,30.44,30.34,3,1,10,0.00
2013-10-30,61.7,48.1,37.4,49.9,43.3,34.7,96,84,64,30.34,30.17,3,0,8,0.01
2013-10-31,64.2,57.7,50.5,56.7,53.9,48.6,95,87,73,30.18,29.61,6,3,20,0.18
2013-11-1,61.9,59.1,56.0,55.7,54.5,53.7,92,85,80,29.61,29.42,11,8,33,0.00
2013-11-2,48.6,42.8,36.3,41.6,38.8,35.3,97,86,68,29.95,29.67,6,2,20,0.05
2013-11-3,43.1,36.1,24.2,38.1,29.6,21.7,95,78,53,30.50,29.95,8,4,17,0.02
2013-11-4,38.4,29.7,22.2,22.3,19.2,16.8,93,66,45,30.66,30.50,5,2,14,0.00
2013-11-5,47.2,38.4,29.9,35.3,24.4,20.9,87,58,38,30.64,30.46,5,2,16,0.00
2013-11-6,66.1,53.2,37.8,48.5,44.4,34.9,95,74,51,30.46,29.97,6,3,16,0.00
2013-11-7,58.6,43.1,33.0,51.1,38.2,22.2,96,83,62,30.10,29.87,8,4,27,0.23
2013-11-8,38.3,32.7,23.8,28.2,25.2,20.8,88,74,58,30.35,30.08,7,3,22,0.00
2013-11-9,52.6,38.1,21.4,28.4,22.4,18.4,94,60,27,30.36,30.03,6,3,20,0.00
2013-11-10,48.2,41.0,34.5,34.4,29.9,26.4,75,65,46,30.27,29.99,10,5,28,0.00
2013-11-11,48.5,37.7,27.0,35.7,26.9,14.8,91,69,28,30.32,30.07,7,2,18,0.00
2013-11-12,37.6,26.0,21.2,35.8,21.8,16.6,96,84,64,30.49,30.08,8,5,20,0.08
2013-11-13,31.5,24.7,20.8,20.7,18.8,17.3,90,79,62,30.58,30.44,6,3,18,0.00
2013-11-14,48.7,32.6,18.2,20.2,16.2,9.4,86,56,20,30.44,30.29,4,2,13,0.00
2013-11-15,50.8,41.8,30.0,38.0,22.6,17.2,87,48,28,30.30,30.22,6,2,19,0.01
2013-11-16,56.4,46.0,33.9,44.5,40.9,33.1,98,83,62,30.30,30.15,6,2,16,0.00
2013-11-17,45.5,45.5,45.5,44.4,44.4,44.4,96,96,96,30.14,30.14,5,5,18,0.00
2013-11-18,51.0,45.4,34.4,46.3,33.0,24.6,89,63,41,30.01,29.69,9,5,24,0.02
2013-11-19,33.7,29.5,23.0,25.3,23.0,19.4,86,77,68,30.46,30.01,9,4,24,0.00
2013-11-20,39.7,28.6,16.4,19.6,16.1,10.7,94,63,34,30.60,30.45,6,2,17,0.00
2013-11-21,46.5,35.7,26.4,37.1,29.4,18.0,90,78,63,30.57,30.37,6,2,13,0.00
2013-11-22,50.4,44.9,33.5,49.3,43.4,30.6,98,94,83,30.37,30.08,11,2,21,0.12
2013-11-23,33.5,26.5,14.3,30.6,20.7,5.0,93,79,59,30.30,30.10,12,6,29,0.00
2013-11-24,18.8,14.1,9.9,12.2,7.6,4.6,85,75,61,30.58,30.30,10,6,24,0.00
2013-11-25,33.1,20.7,5.6,16.2,8.2,3.1,91,62,32,30.60,30.36,4,1,11,0.00
2013-11-26,33.3,30.5,27.4,30.7,27.1,15.9,96,88,49,30.36,29.81,4,1,11,0.17
2013-11-27,31.3,24.9,17.0,30.5,23.4,14.2,98,94,85,30.09,29.69,8,4,22,0.00
2013-11-28,24.3,20.1,13.9,19.2,17.5,10.2,94,90,69,30.53,30.10,7,1,20,0.00
2013-11-29,27.1,22.2,14.6,19.9,17.9,12.7,94,84,71,30.76,30.52,8,1,11,0.00
2013-11-30,27.6,21.8,17.7,22.9,18.5,14.6,93,87,78,30.75,30.38,16,3,17,0.00
2013-12-1,43.2,30.6,15.7,31.6,25.0,14.0,95,81,54,30.38,30.07,10,1,11,0.15
2013-12-2,46.1,37.5,28.6,36.5,32.7,27.5,97,83,66,30.07,29.88,8,0,8,0.00
2013-12-3,50.5,38.9,31.5,41.1,35.3,30.0,98,87,65,30.00,29.90,7,0,7,0.02
2013-12-4,58.0,42.6,31.1,46.7,38.1,29.7,97,85,62,30.09,29.99,12,1,13,0.00
2013-12-5,64.3,53.9,42.7,57.4,51.2,41.9,98,91,74,30.04,29.91,14,2,18,0.66
2013-12-6,42.7,31.8,26.6,42.2,30.8,25.9,98,96,93,30.27,29.95,15,3,16,0.50
2013-12-7,26.7,22.2,16.1,26.0,20.5,14.1,97,93,88,30.64,30.25,9,2,10,0.00
2013-12-8,23.4,17.2,11.2,22.2,15.1,9.2,95,91,86,30.64,30.30,11,2,16,0.00
2013-12-9,35.2,30.2,23.3,34.7,28.6,21.8,98,93,87,30.30,30.11,11,2,15,0.07
2013-12-10,28.0,22.5,17.8,24.9,17.4,10.4,94,81,65,30.28,30.04,22,3,26,0.00
2013-12-11,26.4,19.5,14.0,18.9,12.0,8.2,92,73,52,30.43,30.28,15,3,23,0.00
2013-12-12,17.9,14.6,9.9,15.5,6.3,1.4,91,71,51,30.51,30.30,21,3,21,0.00
2013-12-13,30.2,21.1,14.9,17.0,11.7,4.2,86,67,55,30.39,30.29,18,2,18,0.00
2013-12-14,30.4,27.1,22.1,29.4,23.3,16.1,96,86,59,30.37,29.78,20,3,23,0.00
2013-12-15,33.8,25.9,18.8,33.3,23.4,11.6,98,90,73,30.02,29.68,21,4,21,0.01
2013-12-16,23.3,17.3,12.7,21.6,14.1,9.8,95,87,72,30.23,30.01,15,2,20,0.00
2013-12-17,32.3,26.9,20.5,31.3,24.9,19.3,97,92,83,30.18,30.00,12,1,12,0.00
2013-12-18,24.8,22.1,15.9,21.7,18.8,13.7,94,87,82,30.27,30.06,17,2,17,0.00
2013-12-19,49.4,38.0,20.4,35.8,26.9,13.9,84,65,48,30.21,30.12,15,2,17,0.24
2013-12-20,51.9,48.2,38.5,47.3,36.5,24.8,93,65,43,30.12,29.97,15,4,18,0.00
2013-12-21,59.4,55.3,51.8,55.4,52.2,47.1,97,89,82,29.98,29.76,16,2,16,0.46
2013-12-22,61.8,57.1,51.6,56.7,52.3,48.5,95,84,73,29.95,29.68,24,4,25,0.20
2013-12-23,52.3,37.5,25.7,49.5,35.0,18.3,97,91,74,30.28,29.92,17,4,18,0.05
2013-12-24,25.7,18.8,8.6,21.6,13.0,4.5,91,78,59,30.56,30.25,21,4,21,0.00
2013-12-25,22.4,15.2,6.6,12.8,8.4,3.8,91,75,60,30.61,30.37,12,2,12,0.00
2013-12-26,31.7,26.0,21.1,25.0,18.8,12.2,92,74,62,30.41,30.26,19,2,22,0.00
2013-12-27,37.4,26.1,13.1,24.7,17.5,11.0,93,72,37,30.45,30.37,15,1,16,0.00
2013-12-28,50.9,37.9,26.5,29.7,23.9,18.9,74,58,39,30.38,30.14,15,2,15,0.00
2013-12-29,40.7,37.4,34.7,38.1,33.2,21.0,98,86,48,30.14,29.64,13,1,14,1.00
2013-12-30,35.7,23.2,16.7,34.7,21.2,13.3,96,92,86,30.23,29.86,16,3,20,0.03
2013-12-31,22.4,19.3,16.3,20.0,16.4,13.4,94,89,80,30.38,30.15,21,2,28,0.00
2014-1-1,39.5,28.1,20.4,24.8,19.9,15.4,89,72,47,30.41,30.14,14,2,16,0.02
2014-1-2,28.0,23.6,12.3,23.5,20.5,9.7,94,88,80,30.14,29.73,8,1,17,0.00